sensor_id;sensor_type;location;lat;lon;timestamp;pressure;altitude;pressure_sealevel;temperature;humidity
20368;BME280;10343;52.402;9.796;2023-05-11T00:01:38;100781.63;;;22.11;66.04
20368;BME280;10343;52.402;9.796;2023-05-11T00:04:08;100779.34;;;22.31;65.21
20368;BME280;10343;52.402;9.796;2023-05-11T00:06:36;100777.53;;;22.44;64.94
20368;BME280;10343;52.402;9.796;2023-05-11T00:09:04;100777.56;;;21.52;68.88
20368;BME280;10343;52.402;9.796;2023-05-11T00:11:33;100780.34;;;22.04;67.26
20368;BME280;10343;52.402;9.796;2023-05-11T00:14:02;100772.97;;;22.32;65.82
20368;BME280;10343;52.402;9.796;2023-05-11T00:16:30;100772.66;;;21.85;67.82
20368;BME280;10343;52.402;9.796;2023-05-11T00:18:59;100777.78;;;22.41;65.75
20368;BME280;10343;52.402;9.796;2023-05-11T00:21:28;100777.84;;;22.01;66.58
20368;BME280;10343;52.402;9.796;2023-05-11T00:23:58;100780.66;;;21.99;66.62
20368;BME280;10343;52.402;9.796;2023-05-11T00:26:26;100779.25;;;22.06;66.83
20368;BME280;10343;52.402;9.796;2023-05-11T00:28:54;100782.38;;;22.13;66.37
20368;BME280;10343;52.402;9.796;2023-05-11T00:31:22;100773.63;;;21.71;68.87
20368;BME280;10343;52.402;9.796;2023-05-11T00:33:50;100774.28;;;22.13;66.73
20368;BME280;10343;52.402;9.796;2023-05-11T00:36:20;100770.59;;;21.63;67.93
20368;BME280;10343;52.402;9.796;2023-05-11T00:38:50;100773.50;;;21.85;67.09
20368;BME280;10343;52.402;9.796;2023-05-11T00:41:19;100770.81;;;21.85;66.79
20368;BME280;10343;52.402;9.796;2023-05-11T00:43:47;100774.38;;;21.86;67.53
20368;BME280;10343;52.402;9.796;2023-05-11T00:46:15;100774.47;;;21.71;67.70
20368;BME280;10343;52.402;9.796;2023-05-11T00:48:44;100771.69;;;22.12;66.23
20368;BME280;10343;52.402;9.796;2023-05-11T00:51:13;100776.97;;;21.87;66.40
20368;BME280;10343;52.402;9.796;2023-05-11T00:53:41;100775.91;;;22.29;64.30
20368;BME280;10343;52.402;9.796;2023-05-11T00:56:11;100780.56;;;22.39;64.29
20368;BME280;10343;52.402;9.796;2023-05-11T00:58:39;100773.84;;;21.94;64.88
20368;BME280;10343;52.402;9.796;2023-05-11T01:01:07;100778.78;;;21.74;66.29
20368;BME280;10343;52.402;9.796;2023-05-11T01:03:36;100777.53;;;22.18;64.43
20368;BME280;10343;52.402;9.796;2023-05-11T01:06:07;100782.97;;;22.81;62.17
20368;BME280;10343;52.402;9.796;2023-05-11T01:08:41;100786.78;;;22.79;61.61
20368;BME280;10343;52.402;9.796;2023-05-11T01:11:14;100785.50;;;22.59;62.66
20368;BME280;10343;52.402;9.796;2023-05-11T01:13:47;100781.19;;;22.04;64.09
20368;BME280;10343;52.402;9.796;2023-05-11T01:16:19;100788.44;;;22.04;64.41
20368;BME280;10343;52.402;9.796;2023-05-11T01:18:58;100786.81;;;22.14;64.49
20368;BME280;10343;52.402;9.796;2023-05-11T01:21:31;100785.41;;;22.21;63.80
20368;BME280;10343;52.402;9.796;2023-05-11T01:24:14;100788.00;;;22.49;61.84
20368;BME280;10343;52.402;9.796;2023-05-11T01:27:02;100785.19;;;22.12;62.91
20368;BME280;10343;52.402;9.796;2023-05-11T01:29:53;100777.28;;;21.70;63.98
20368;BME280;10343;52.402;9.796;2023-05-11T01:32:27;100781.16;;;21.66;62.99
20368;BME280;10343;52.402;9.796;2023-05-11T01:35:05;100789.03;;;21.42;64.09
20368;BME280;10343;52.402;9.796;2023-05-11T01:37:34;100791.09;;;21.78;62.98
20368;BME280;10343;52.402;9.796;2023-05-11T01:40:11;100789.28;;;21.92;61.32
20368;BME280;10343;52.402;9.796;2023-05-11T01:42:43;100791.09;;;21.78;62.61
20368;BME280;10343;52.402;9.796;2023-05-11T01:45:12;100791.56;;;22.11;60.86
20368;BME280;10343;52.402;9.796;2023-05-11T01:47:44;100789.19;;;21.93;61.32
20368;BME280;10343;52.402;9.796;2023-05-11T01:50:14;100789.72;;;22.11;60.62
20368;BME280;10343;52.402;9.796;2023-05-11T01:52:45;100788.31;;;22.18;61.52
20368;BME280;10343;52.402;9.796;2023-05-11T01:55:16;100787.03;;;22.11;60.55
20368;BME280;10343;52.402;9.796;2023-05-11T01:57:47;100788.69;;;21.61;61.94
20368;BME280;10343;52.402;9.796;2023-05-11T02:00:19;100787.69;;;21.49;64.47
20368;BME280;10343;52.402;9.796;2023-05-11T02:02:49;100793.06;;;21.49;64.53
20368;BME280;10343;52.402;9.796;2023-05-11T02:05:21;100788.28;;;21.40;65.88
20368;BME280;10343;52.402;9.796;2023-05-11T02:07:51;100794.44;;;21.14;66.59
20368;BME280;10343;52.402;9.796;2023-05-11T02:10:24;100791.94;;;21.11;67.00
20368;BME280;10343;52.402;9.796;2023-05-11T02:12:53;100791.94;;;21.11;66.28
20368;BME280;10343;52.402;9.796;2023-05-11T02:15:24;100797.41;;;20.82;67.77
20368;BME280;10343;52.402;9.796;2023-05-11T02:17:54;100788.63;;;20.64;69.03
20368;BME280;10343;52.402;9.796;2023-05-11T02:20:23;100790.56;;;20.91;67.98
20368;BME280;10343;52.402;9.796;2023-05-11T02:22:53;100798.38;;;20.81;68.21
20368;BME280;10343;52.402;9.796;2023-05-11T02:25:22;100791.78;;;21.00;66.60
20368;BME280;10343;52.402;9.796;2023-05-11T02:27:51;100801.16;;;21.21;65.25
20368;BME280;10343;52.402;9.796;2023-05-11T02:30:19;100799.81;;;21.56;65.10
20368;BME280;10343;52.402;9.796;2023-05-11T02:32:50;100796.50;;;21.65;62.78
20368;BME280;10343;52.402;9.796;2023-05-11T02:35:24;100801.09;;;21.36;63.61
20368;BME280;10343;52.402;9.796;2023-05-11T02:37:55;100804.56;;;21.38;63.92
20368;BME280;10343;52.402;9.796;2023-05-11T02:40:31;100804.78;;;20.93;65.99
20368;BME280;10343;52.402;9.796;2023-05-11T02:43:07;100810.50;;;20.74;67.57
20368;BME280;10343;52.402;9.796;2023-05-11T02:45:41;100798.28;;;20.83;67.98
20368;BME280;10343;52.402;9.796;2023-05-11T02:48:13;100803.75;;;21.23;64.88
20368;BME280;10343;52.402;9.796;2023-05-11T02:50:50;100803.19;;;21.18;65.50
20368;BME280;10343;52.402;9.796;2023-05-11T02:53:20;100795.22;;;20.75;66.71
20368;BME280;10343;52.402;9.796;2023-05-11T02:55:50;100803.06;;;20.63;67.88
20368;BME280;10343;52.402;9.796;2023-05-11T02:58:19;100800.88;;;20.84;67.36
20368;BME280;10343;52.402;9.796;2023-05-11T03:00:53;100800.38;;;21.47;64.16
20368;BME280;10343;52.402;9.796;2023-05-11T03:03:22;100802.50;;;20.58;68.24
20368;BME280;10343;52.402;9.796;2023-05-11T03:05:52;100802.13;;;20.79;66.83
20368;BME280;10343;52.402;9.796;2023-05-11T03:08:20;100803.00;;;20.65;67.28
20368;BME280;10343;52.402;9.796;2023-05-11T03:10:48;100798.66;;;21.18;64.97
20368;BME280;10343;52.402;9.796;2023-05-11T03:13:18;100809.91;;;20.98;66.08
20368;BME280;10343;52.402;9.796;2023-05-11T03:15:47;100799.91;;;21.54;62.50
20368;BME280;10343;52.402;9.796;2023-05-11T03:18:16;100796.44;;;21.52;63.04
20368;BME280;10343;52.402;9.796;2023-05-11T03:20:46;100804.75;;;21.35;63.73
20368;BME280;10343;52.402;9.796;2023-05-11T03:23:16;100802.53;;;21.82;62.30
20368;BME280;10343;52.402;9.796;2023-05-11T03:25:44;100806.13;;;21.82;61.14
20368;BME280;10343;52.402;9.796;2023-05-11T03:28:13;100799.53;;;21.46;61.83
20368;BME280;10343;52.402;9.796;2023-05-11T03:30:53;100810.69;;;21.54;61.91
20368;BME280;10343;52.402;9.796;2023-05-11T03:33:21;100798.34;;;21.50;62.35
20368;BME280;10343;52.402;9.796;2023-05-11T03:35:52;100809.69;;;21.01;64.26
20368;BME280;10343;52.402;9.796;2023-05-11T03:38:27;100802.06;;;21.08;64.77
20368;BME280;10343;52.402;9.796;2023-05-11T03:40:57;100802.34;;;21.03;65.55
20368;BME280;10343;52.402;9.796;2023-05-11T03:43:29;100797.69;;;21.47;62.63
20368;BME280;10343;52.402;9.796;2023-05-11T03:45:59;100799.69;;;21.58;62.83
20368;BME280;10343;52.402;9.796;2023-05-11T03:48:29;100799.41;;;21.48;61.52
20368;BME280;10343;52.402;9.796;2023-05-11T03:50:58;100797.84;;;21.31;63.22
20368;BME280;10343;52.402;9.796;2023-05-11T03:53:29;100797.22;;;20.85;65.07
20368;BME280;10343;52.402;9.796;2023-05-11T03:55:57;100794.44;;;21.42;62.89
20368;BME280;10343;52.402;9.796;2023-05-11T03:58:26;100793.25;;;21.18;63.68
20368;BME280;10343;52.402;9.796;2023-05-11T04:00:54;100793.16;;;21.47;62.51
20368;BME280;10343;52.402;9.796;2023-05-11T04:03:23;100796.97;;;21.03;65.77
20368;BME280;10343;52.402;9.796;2023-05-11T04:05:53;100800.72;;;21.00;64.53
20368;BME280;10343;52.402;9.796;2023-05-11T04:08:21;100800.88;;;20.84;66.46
20368;BME280;10343;52.402;9.796;2023-05-11T04:10:51;100793.97;;;21.35;62.83
20368;BME280;10343;52.402;9.796;2023-05-11T04:13:19;100797.56;;;21.76;60.93
20368;BME280;10343;52.402;9.796;2023-05-11T04:15:47;100795.31;;;21.42;61.95
20368;BME280;10343;52.402;9.796;2023-05-11T04:18:15;100800.66;;;21.57;61.26
20368;BME280;10343;52.402;9.796;2023-05-11T04:20:43;100798.97;;;21.41;62.73
20368;BME280;10343;52.402;9.796;2023-05-11T04:23:11;100804.94;;;21.99;60.46
20368;BME280;10343;52.402;9.796;2023-05-11T04:25:39;100799.97;;;22.06;60.26
20368;BME280;10343;52.402;9.796;2023-05-11T04:28:08;100801.56;;;21.43;61.58
20368;BME280;10343;52.402;9.796;2023-05-11T04:30:36;100798.66;;;21.18;62.93
20368;BME280;10343;52.402;9.796;2023-05-11T04:33:05;100809.22;;;20.80;65.09
20368;BME280;10343;52.402;9.796;2023-05-11T04:35:33;100805.56;;;20.95;66.26
20368;BME280;10343;52.402;9.796;2023-05-11T04:38:01;100799.53;;;20.77;65.15
20368;BME280;10343;52.402;9.796;2023-05-11T04:40:31;100802.22;;;20.63;65.53
20368;BME280;10343;52.402;9.796;2023-05-11T04:43:03;100802.03;;;20.80;65.27
20368;BME280;10343;52.402;9.796;2023-05-11T04:45:33;100804.19;;;21.02;64.94
20368;BME280;10343;52.402;9.796;2023-05-11T04:48:01;100813.94;;;20.91;64.14
20368;BME280;10343;52.402;9.796;2023-05-11T04:50:29;100812.59;;;20.54;66.39
20368;BME280;10343;52.402;9.796;2023-05-11T04:52:57;100809.84;;;21.40;63.79
20368;BME280;10343;52.402;9.796;2023-05-11T04:55:25;100811.63;;;21.94;60.46
20368;BME280;10343;52.402;9.796;2023-05-11T04:57:55;100820.63;;;21.12;62.07
20368;BME280;10343;52.402;9.796;2023-05-11T05:00:23;100814.28;;;21.13;62.79
20368;BME280;10343;52.402;9.796;2023-05-11T05:02:52;100811.56;;;21.68;61.74
20368;BME280;10343;52.402;9.796;2023-05-11T05:05:21;100817.88;;;21.27;61.74
20368;BME280;10343;52.402;9.796;2023-05-11T05:07:49;100820.84;;;20.95;63.25
20368;BME280;10343;52.402;9.796;2023-05-11T05:10:17;100813.50;;;21.38;61.80
20368;BME280;10343;52.402;9.796;2023-05-11T05:12:46;100812.25;;;21.84;60.87
20368;BME280;10343;52.402;9.796;2023-05-11T05:15:14;100825.56;;;21.87;60.64
20368;BME280;10343;52.402;9.796;2023-05-11T05:17:44;100820.50;;;21.96;59.57
20368;BME280;10343;52.402;9.796;2023-05-11T05:20:15;100824.25;;;21.26;63.63
20368;BME280;10343;52.402;9.796;2023-05-11T05:22:43;100824.78;;;21.31;62.14
20368;BME280;10343;52.402;9.796;2023-05-11T05:25:11;100825.50;;;21.75;61.09
20368;BME280;10343;52.402;9.796;2023-05-11T05:27:39;100827.97;;;21.10;63.94
20368;BME280;10343;52.402;9.796;2023-05-11T05:30:15;100826.59;;;21.45;62.61
20368;BME280;10343;52.402;9.796;2023-05-11T05:32:44;100826.19;;;21.78;61.74
20368;BME280;10343;52.402;9.796;2023-05-11T05:35:12;100835.31;;;20.94;65.44
20368;BME280;10343;52.402;9.796;2023-05-11T05:37:43;100831.25;;;21.70;62.87
20368;BME280;10343;52.402;9.796;2023-05-11T05:40:16;100834.84;;;21.29;63.55
20368;BME280;10343;52.402;9.796;2023-05-11T05:42:49;100834.13;;;22.20;59.70
20368;BME280;10343;52.402;9.796;2023-05-11T05:45:20;100835.63;;;22.24;59.36
20368;BME280;10343;52.402;9.796;2023-05-11T05:47:49;100839.94;;;22.78;58.80
20368;BME280;10343;52.402;9.796;2023-05-11T05:50:18;100843.00;;;21.82;60.50
20368;BME280;10343;52.402;9.796;2023-05-11T05:52:48;100846.47;;;22.50;59.36
20368;BME280;10343;52.402;9.796;2023-05-11T05:55:16;100848.84;;;22.42;59.61
20368;BME280;10343;52.402;9.796;2023-05-11T05:57:46;100849.69;;;22.16;59.23
20368;BME280;10343;52.402;9.796;2023-05-11T06:00:15;100850.97;;;22.23;61.29
20368;BME280;10343;52.402;9.796;2023-05-11T06:02:52;100854.56;;;22.50;59.09
20368;BME280;10343;52.402;9.796;2023-05-11T06:05:24;100849.47;;;22.71;57.64
20368;BME280;10343;52.402;9.796;2023-05-11T06:07:53;100856.16;;;22.78;57.49
20368;BME280;10343;52.402;9.796;2023-05-11T06:10:36;100856.50;;;22.35;59.61
20368;BME280;10343;52.402;9.796;2023-05-11T06:13:06;100855.44;;;21.84;62.38
20368;BME280;10343;52.402;9.796;2023-05-11T06:15:36;100854.97;;;21.78;62.59
20368;BME280;10343;52.402;9.796;2023-05-11T06:18:15;100860.09;;;21.13;65.22
20368;BME280;10343;52.402;9.796;2023-05-11T06:20:44;100855.97;;;21.49;63.82
20368;BME280;10343;52.402;9.796;2023-05-11T06:23:16;100856.56;;;21.40;65.03
20368;BME280;10343;52.402;9.796;2023-05-11T06:25:43;100858.63;;;21.64;64.91
20368;BME280;10343;52.402;9.796;2023-05-11T06:28:12;100855.31;;;21.04;67.04
20368;BME280;10343;52.402;9.796;2023-05-11T06:30:40;100852.66;;;21.17;66.68
20368;BME280;10343;52.402;9.796;2023-05-11T06:33:09;100858.63;;;21.64;64.46
20368;BME280;10343;52.402;9.796;2023-05-11T06:35:39;100847.50;;;21.96;62.62
20368;BME280;10343;52.402;9.796;2023-05-11T06:38:10;100847.50;;;22.21;63.57
20368;BME280;10343;52.402;9.796;2023-05-11T06:40:39;100857.94;;;21.33;65.73
20368;BME280;10343;52.402;9.796;2023-05-11T06:43:07;100853.66;;;21.58;66.02
20368;BME280;10343;52.402;9.796;2023-05-11T06:45:44;100854.38;;;21.87;67.11
20368;BME280;10343;52.402;9.796;2023-05-11T06:48:13;100851.50;;;21.63;66.61
20368;BME280;10343;52.402;9.796;2023-05-11T06:50:41;100858.78;;;20.92;69.38
20368;BME280;10343;52.402;9.796;2023-05-11T06:53:11;100857.00;;;21.19;70.55
20368;BME280;10343;52.402;9.796;2023-05-11T06:55:41;100845.66;;;21.56;68.56
20368;BME280;10343;52.402;9.796;2023-05-11T06:58:09;100843.84;;;21.42;67.06
20368;BME280;10343;52.402;9.796;2023-05-11T07:00:37;100850.72;;;21.61;68.92
20368;BME280;10343;52.402;9.796;2023-05-11T07:03:05;100850.56;;;21.49;66.90
20368;BME280;10343;52.402;9.796;2023-05-11T07:05:34;100857.09;;;21.60;68.23
20368;BME280;10343;52.402;9.796;2023-05-11T07:08:03;100851.69;;;21.60;67.54
20368;BME280;10343;52.402;9.796;2023-05-11T07:10:31;100856.78;;;21.23;70.84
20368;BME280;10343;52.402;9.796;2023-05-11T07:13:01;100856.78;;;20.95;71.37
20368;BME280;10343;52.402;9.796;2023-05-11T07:15:29;100861.88;;;20.85;73.35
20368;BME280;10343;52.402;9.796;2023-05-11T07:17:57;100855.88;;;20.66;74.38
20368;BME280;10343;52.402;9.796;2023-05-11T07:20:27;100855.34;;;21.31;72.02
20368;BME280;10343;52.402;9.796;2023-05-11T07:22:56;100846.53;;;21.15;72.58
20368;BME280;10343;52.402;9.796;2023-05-11T07:25:24;100856.50;;;21.27;69.72
20368;BME280;10343;52.402;9.796;2023-05-11T07:27:52;100863.97;;;21.09;69.43
20368;BME280;10343;52.402;9.796;2023-05-11T07:30:22;100858.56;;;21.09;70.62
20368;BME280;10343;52.402;9.796;2023-05-11T07:32:51;100848.53;;;21.80;70.73
20368;BME280;10343;52.402;9.796;2023-05-11T07:35:19;100853.56;;;21.72;69.70
20368;BME280;10343;52.402;9.796;2023-05-11T07:37:49;100855.53;;;21.70;69.07
20368;BME280;10343;52.402;9.796;2023-05-11T07:40:18;100860.81;;;20.74;72.20
20368;BME280;10343;52.402;9.796;2023-05-11T07:42:46;100865.13;;;20.62;72.41
20368;BME280;10343;52.402;9.796;2023-05-11T07:45:14;100864.22;;;20.77;74.81
20368;BME280;10343;52.402;9.796;2023-05-11T07:47:43;100852.91;;;20.42;74.53
20368;BME280;10343;52.402;9.796;2023-05-11T07:50:11;100859.53;;;20.50;74.76
20368;BME280;10343;52.402;9.796;2023-05-11T07:52:39;100856.97;;;21.34;72.57
20368;BME280;10343;52.402;9.796;2023-05-11T07:55:08;100867.63;;;20.50;76.34
20368;BME280;10343;52.402;9.796;2023-05-11T07:57:36;100859.03;;;20.44;76.15
20368;BME280;10343;52.402;9.796;2023-05-11T08:00:06;100868.47;;;21.23;74.19
20368;BME280;10343;52.402;9.796;2023-05-11T08:02:39;100733.09;;;20.34;100.00
20368;BME280;10343;52.402;9.796;2023-05-11T08:05:09;100863.09;;;20.51;85.61
20368;BME280;10343;52.402;9.796;2023-05-11T08:07:38;100869.47;;;20.93;80.80
20368;BME280;10343;52.402;9.796;2023-05-11T08:10:08;100869.25;;;20.67;78.82
20368;BME280;10343;52.402;9.796;2023-05-11T08:12:36;100863.66;;;21.55;75.54
20368;BME280;10343;52.402;9.796;2023-05-11T08:15:05;100870.00;;;21.13;76.38
20368;BME280;10343;52.402;9.796;2023-05-11T08:17:33;100866.56;;;21.52;75.40
20368;BME280;10343;52.402;9.796;2023-05-11T08:20:02;100871.66;;;20.58;77.06
20368;BME280;10343;52.402;9.796;2023-05-11T08:22:31;100867.66;;;21.35;76.07
20368;BME280;10343;52.402;9.796;2023-05-11T08:25:00;100868.97;;;21.57;75.04
20368;BME280;10343;52.402;9.796;2023-05-11T08:27:29;100871.69;;;20.72;80.71
20368;BME280;10343;52.402;9.796;2023-05-11T08:29:57;100870.91;;;20.56;82.76
20368;BME280;10343;52.402;9.796;2023-05-11T08:32:27;100874.38;;;20.86;78.85
20368;BME280;10343;52.402;9.796;2023-05-11T08:34:56;100873.69;;;21.39;74.69
20368;BME280;10343;52.402;9.796;2023-05-11T08:37:24;100865.88;;;21.07;82.36
20368;BME280;10343;52.402;9.796;2023-05-11T08:39:53;100880.41;;;22.01;77.46
20368;BME280;10343;52.402;9.796;2023-05-11T08:42:23;100876.97;;;21.99;77.74
20368;BME280;10343;52.402;9.796;2023-05-11T08:44:54;100873.44;;;21.02;87.78
20368;BME280;10343;52.402;9.796;2023-05-11T08:47:22;100857.56;;;21.25;90.34
20368;BME280;10343;52.402;9.796;2023-05-11T08:49:51;100865.69;;;22.84;84.05
20368;BME280;10343;52.402;9.796;2023-05-11T08:52:19;100870.50;;;21.61;85.49
20368;BME280;10343;52.402;9.796;2023-05-11T08:54:47;100870.94;;;21.26;81.66
20368;BME280;10343;52.402;9.796;2023-05-11T08:57:17;100874.25;;;21.99;80.74
20368;BME280;10343;52.402;9.796;2023-05-11T08:59:46;100879.84;;;23.86;69.25
20368;BME280;10343;52.402;9.796;2023-05-11T09:02:16;100877.56;;;22.81;70.60
20368;BME280;10343;52.402;9.796;2023-05-11T09:04:45;100881.22;;;23.06;72.79
20368;BME280;10343;52.402;9.796;2023-05-11T09:07:15;100880.13;;;22.18;75.48
20368;BME280;10343;52.402;9.796;2023-05-11T09:09:45;100882.19;;;21.33;77.22
20368;BME280;10343;52.402;9.796;2023-05-11T09:12:14;100877.06;;;21.43;81.96
20368;BME280;10343;52.402;9.796;2023-05-11T09:14:44;100872.41;;;21.59;80.34
20368;BME280;10343;52.402;9.796;2023-05-11T09:17:13;100859.78;;;28.06;75.83
20368;BME280;10343;52.402;9.796;2023-05-11T09:19:58;100872.81;;;23.83;66.46
20368;BME280;10343;52.402;9.796;2023-05-11T09:22:27;100875.56;;;23.09;68.82
20368;BME280;10343;52.402;9.796;2023-05-11T09:25:00;100882.94;;;22.94;69.04
20368;BME280;10343;52.402;9.796;2023-05-11T09:27:28;100875.34;;;22.09;72.06
20368;BME280;10343;52.402;9.796;2023-05-11T09:30:09;100884.06;;;22.79;68.35
20368;BME280;10343;52.402;9.796;2023-05-11T09:32:48;100882.50;;;22.23;71.92
20368;BME280;10343;52.402;9.796;2023-05-11T09:35:21;100876.28;;;21.82;74.38
20368;BME280;10343;52.402;9.796;2023-05-11T09:37:57;100876.38;;;22.34;73.14
20368;BME280;10343;52.402;9.796;2023-05-11T09:40:26;100877.81;;;21.99;75.04
20368;BME280;10343;52.402;9.796;2023-05-11T09:43:01;100881.81;;;21.94;71.79
20368;BME280;10343;52.402;9.796;2023-05-11T09:45:35;100873.03;;;22.82;70.03
20368;BME280;10343;52.402;9.796;2023-05-11T09:48:05;100881.66;;;22.74;70.68
20368;BME280;10343;52.402;9.796;2023-05-11T09:50:34;100882.31;;;22.52;72.50
20368;BME280;10343;52.402;9.796;2023-05-11T09:53:03;100879.72;;;22.25;71.06
20368;BME280;10343;52.402;9.796;2023-05-11T09:55:31;100881.91;;;22.45;70.66
20368;BME280;10343;52.402;9.796;2023-05-11T09:57:59;100857.38;;;21.82;94.30
20368;BME280;10343;52.402;9.796;2023-05-11T10:00:27;100870.09;;;21.26;85.85
20368;BME280;10343;52.402;9.796;2023-05-11T10:03:02;100869.91;;;21.83;80.56
20368;BME280;10343;52.402;9.796;2023-05-11T10:05:35;100872.13;;;22.30;77.25
20368;BME280;10343;52.402;9.796;2023-05-11T10:08:04;100869.75;;;21.72;78.52
20368;BME280;10343;52.402;9.796;2023-05-11T10:10:33;100869.47;;;21.77;76.53
20368;BME280;10343;52.402;9.796;2023-05-11T10:13:02;100871.53;;;22.65;73.53
20368;BME280;10343;52.402;9.796;2023-05-11T10:15:31;100863.50;;;22.25;74.07
20368;BME280;10343;52.402;9.796;2023-05-11T10:18:05;100868.06;;;22.63;70.87
20368;BME280;10343;52.402;9.796;2023-05-11T10:20:34;100869.84;;;21.58;74.78
20368;BME280;10343;52.402;9.796;2023-05-11T10:23:02;100872.94;;;21.37;77.76
20368;BME280;10343;52.402;9.796;2023-05-11T10:25:32;100865.97;;;21.62;77.64
20368;BME280;10343;52.402;9.796;2023-05-11T10:28:01;100866.34;;;21.55;75.93
20368;BME280;10343;52.402;9.796;2023-05-11T10:30:29;100871.81;;;21.27;77.17
20368;BME280;10343;52.402;9.796;2023-05-11T10:32:59;100864.81;;;21.79;76.31
20368;BME280;10343;52.402;9.796;2023-05-11T10:35:29;100862.97;;;22.71;69.59
20368;BME280;10343;52.402;9.796;2023-05-11T10:37:59;100863.59;;;23.00;68.19
20368;BME280;10343;52.402;9.796;2023-05-11T10:40:28;100870.88;;;22.61;69.60
20368;BME280;10343;52.402;9.796;2023-05-11T10:43:26;100866.13;;;22.52;71.12
20368;BME280;10343;52.402;9.796;2023-05-11T10:46:07;100858.47;;;21.52;75.36
20368;BME280;10343;52.402;9.796;2023-05-11T10:52:00;100867.34;;;21.40;75.51
20368;BME280;10343;52.402;9.796;2023-05-11T10:54:44;100856.13;;;22.01;72.91
20368;BME280;10343;52.402;9.796;2023-05-11T10:57:29;100857.03;;;22.66;73.24
20368;BME280;10343;52.402;9.796;2023-05-11T11:00:12;100857.44;;;22.08;74.95
20368;BME280;10343;52.402;9.796;2023-05-11T11:02:56;100863.34;;;21.18;81.13
20368;BME280;10343;52.402;9.796;2023-05-11T11:05:34;100855.13;;;21.89;81.01
20368;BME280;10343;52.402;9.796;2023-05-11T11:08:06;100855.59;;;21.41;82.01
20368;BME280;10343;52.402;9.796;2023-05-11T11:10:36;100726.53;;;23.49;100.00
20368;BME280;10343;52.402;9.796;2023-05-11T11:13:06;100838.03;;;24.37;100.00
20368;BME280;10343;52.402;9.796;2023-05-11T11:16:07;100772.22;;;21.65;100.00
20368;BME280;10343;52.402;9.796;2023-05-11T11:18:36;100857.66;;;22.31;87.28
20368;BME280;10343;52.402;9.796;2023-05-11T11:21:04;100858.56;;;26.27;63.54
20368;BME280;10343;52.402;9.796;2023-05-11T11:23:45;100866.78;;;22.55;75.08
20368;BME280;10343;52.402;9.796;2023-05-11T11:26:18;100863.38;;;23.65;71.89
20368;BME280;10343;52.402;9.796;2023-05-11T11:29:09;100872.66;;;23.49;68.96
20368;BME280;10343;52.402;9.796;2023-05-11T11:31:39;100857.78;;;23.79;86.56
20368;BME280;10343;52.402;9.796;2023-05-11T11:34:34;100861.16;;;26.81;57.13
20368;BME280;10343;52.402;9.796;2023-05-11T11:37:06;100866.63;;;23.81;68.92
20368;BME280;10343;52.402;9.796;2023-05-11T11:39:48;100872.66;;;23.49;72.21
20368;BME280;10343;52.402;9.796;2023-05-11T11:42:34;100872.69;;;23.61;70.11
20368;BME280;10343;52.402;9.796;2023-05-11T11:45:31;100869.59;;;22.54;73.38
20368;BME280;10343;52.402;9.796;2023-05-11T11:48:28;100867.19;;;22.88;71.66
20368;BME280;10343;52.402;9.796;2023-05-11T11:51:02;100871.28;;;22.16;77.57
20368;BME280;10343;52.402;9.796;2023-05-11T11:54:04;100870.41;;;22.16;76.00
20368;BME280;10343;52.402;9.796;2023-05-11T11:56:44;100872.53;;;22.51;77.69
20368;BME280;10343;52.402;9.796;2023-05-11T11:59:15;100872.47;;;23.39;72.24
20368;BME280;10343;52.402;9.796;2023-05-11T12:01:44;100867.88;;;22.40;75.52
20368;BME280;10343;52.402;9.796;2023-05-11T12:04:44;100868.72;;;22.66;70.83
20368;BME280;10343;52.402;9.796;2023-05-11T12:07:19;100861.59;;;22.39;77.80
20368;BME280;10343;52.402;9.796;2023-05-11T12:09:48;100864.75;;;21.53;81.72
20368;BME280;10343;52.402;9.796;2023-05-11T12:12:20;100865.00;;;22.03;79.01
20368;BME280;10343;52.402;9.796;2023-05-11T12:14:48;100866.31;;;22.87;73.80
20368;BME280;10343;52.402;9.796;2023-05-11T12:17:23;100864.16;;;22.15;78.28
20368;BME280;10343;52.402;9.796;2023-05-11T12:19:54;100866.66;;;22.83;72.80
20368;BME280;10343;52.402;9.796;2023-05-11T12:22:23;100858.88;;;22.39;77.88
20368;BME280;10343;52.402;9.796;2023-05-11T12:24:54;100863.28;;;22.79;74.33
20368;BME280;10343;52.402;9.796;2023-05-11T12:27:27;100857.28;;;22.37;75.20
20368;BME280;10343;52.402;9.796;2023-05-11T12:29:55;100867.50;;;23.33;71.73
20368;BME280;10343;52.402;9.796;2023-05-11T12:32:25;100858.69;;;23.55;69.96
20368;BME280;10343;52.402;9.796;2023-05-11T12:34:58;100854.91;;;23.45;70.42
20368;BME280;10343;52.402;9.796;2023-05-11T12:37:27;100845.63;;;23.85;69.85
20368;BME280;10343;52.402;9.796;2023-05-11T12:39:57;100858.13;;;23.99;70.48
20368;BME280;10343;52.402;9.796;2023-05-11T12:42:26;100856.34;;;23.86;68.67
20368;BME280;10343;52.402;9.796;2023-05-11T12:44:54;100847.09;;;23.53;68.23
20368;BME280;10343;52.402;9.796;2023-05-11T12:47:23;100846.56;;;23.24;70.14
20368;BME280;10343;52.402;9.796;2023-05-11T12:49:51;100849.59;;;23.19;71.24
20368;BME280;10343;52.402;9.796;2023-05-11T12:52:22;100856.38;;;22.75;73.41
20368;BME280;10343;52.402;9.796;2023-05-11T12:54:50;100851.66;;;23.53;70.52
20368;BME280;10343;52.402;9.796;2023-05-11T12:57:25;100849.63;;;24.03;66.70
20368;BME280;10343;52.402;9.796;2023-05-11T13:00:09;100844.88;;;23.47;70.92
20368;BME280;10343;52.402;9.796;2023-05-11T13:02:48;100848.19;;;23.75;67.97
20368;BME280;10343;52.402;9.796;2023-05-11T13:05:18;100842.59;;;23.41;68.83
20368;BME280;10343;52.402;9.796;2023-05-11T13:07:56;100839.56;;;23.81;64.84
20368;BME280;10343;52.402;9.796;2023-05-11T13:10:25;100844.38;;;23.78;67.46
20368;BME280;10343;52.402;9.796;2023-05-11T13:12:54;100842.88;;;24.09;65.09
20368;BME280;10343;52.402;9.796;2023-05-11T13:15:24;100839.78;;;24.72;62.00